Flugplatz Landeplatz Delta Club Wiehengebirge (UL)

Hier findest Du alle Informationen zum Flugplatz Landeplatz Delta Club Wiehengebirge (UL).

Informationen für Piloten zum Flugplatz Landeplatz Delta Club Wiehengebirge

Hier findest Du alle relevanten Informationen, die Du als Pilot benötigst, um Landeplatz Delta Club Wiehengebirge anzufliegen.

Flugplatz: Landeplatz Delta Club Wiehengebirge ICAO-Code: UL Flugplatz
Frequenz Turm: nicht bekan Mhz GAFOR Gebiet: -
Frequenz Ground: nicht bekan Mhz Mogas: ja
Platzrunde: N 0 ft Landegebühr: -
Platzhöhe: - Sunrise: 03:06 Uhr UTC
Pisten: 09/27 - 280 m x 30 m, GRAS Sunset: 19:50 Uhr UTC

Flugwetter am Flugplatz Landeplatz Delta Club Wiehengebirge

Die METAR Information stammen aus EDDV (59.58 km entfernt).

METAR Code:
2022/06/13 20:50
EDDV 132050Z AUTO 34003KT CAVOK 12/07 Q1022 NOSIG

Flugschulen am Flugplatz Landeplatz Delta Club Wiehengebirge

Am Flugplatz Landeplatz Delta Club Wiehengebirge gibt es leider keine Flugschule.

Benachbarte Flugplätze und Flugschulen

Es gibt 13 weitere Flugplätze in einem Umkreis von 50 km um den Flugplatz Landeplatz Delta Club Wiehengebirge.

Jetzt anmelden

Passwort vergessen

Umfrage Archiv

Sendet Ihr ADS-B und/oder FLARM?

Ja
83.1 %
Nein
16.9 %
Stimmen: 177 | Diskussion
Anzeige: Roland Aircraft
Statistik Alle Mitglieder

Aktuell sind 48 Besucher online, davon 1 Mitglied und 47 Gäste.


Mitglieder online:
Excalibur93 

Anzeige: ULPower Aero Engines Anzeige: Pocket FMS